Ina Theresa — V7UJ2 — position and weather

sailwx.info

Track history (hours):
 
Tides and Currents Weather Stations Pressure Air Temp Water Temp Dewpoint Dewpoint Depression Visibility Wind Speed Wind Dir Waves Ship Positions

Ina Theresa

Last reported at 2015-May-22 20:19 UTC. Time now 2015-May-23 07:18 UTC.
Position N 36°40' E 000°15'.

Length 122 m; draft 5.5 m.

Type: Ship. MMSI: 538004548.

Date/timePositionNaut miles runAvg speedWind from/ knotsBaromVisibWave heightAir tempDewpointWater temp
2015-May-22 20:19N 36°40' E 000°15'4012.9
2015-May-22 17:14N 36°32' W 000°33'8813.3
2015-May-22 10:33N 36°16' W 002°21'1413.2
2015-May-22 09:28N 36°14' W 002°39'1413.0
2015-May-22 08:23N 36°12' W 002°56'11113.8
2015-May-22 00:24N 36°00' W 005°12'1315.6
2015-May-21 23:33N 35°57' W 005°28'  
2015-May-18 02:31N 24°05' W 016°43'1511.5
2015-May-18 01:11N 23°51' W 016°49'811.6
2015-May-18 00:30N 23°43' W 016°52'1711.7
2015-May-17 23:05N 23°28' W 017°00'611.9
2015-May-17 22:34N 23°23' W 017°03'1311.9
2015-May-17 21:28N 23°11' W 017°08'3611.7
2015-May-17 18:24N 22°38' W 017°23'1011.3
2015-May-17 17:33N 22°29' W 017°28'1211.5
2015-May-17 16:32N 22°18' W 017°32'1111.3
2015-May-17 15:33N 22°08' W 017°37'1111.4
2015-May-17 14:33N 21°58' W 017°42'1211.6
2015-May-17 13:33N 21°47' W 017°47'1211.7
2015-May-17 12:34N 21°36' W 017°50'1211.5
2015-May-17 11:33N 21°24' W 017°50'1211.7
2015-May-17 10:34N 21°12' W 017°50'1311.9
2015-May-17 09:25N 20°59' W 017°50'1112.7
2015-May-17 08:33N 20°48' W 017°50'1312.9
2015-May-17 07:33N 20°35' W 017°50'1412.9
2015-May-17 06:29N 20°21' W 017°50'1213.0
2015-May-17 05:33N 20°09' W 017°50'3112.5
2015-May-17 03:03N 19°38' W 017°50'  
Track history (hours):
 
Tides and Currents Weather Stations Pressure Air Temp Water Temp Dewpoint Dewpoint Depression Visibility Wind Speed Wind Dir Waves Ship Positions

Ina Theresa

Last reported at 2015-May-22 20:19 UTC. Time now 2015-May-23 07:18 UTC.
Position N 36°40' E 000°15'.

Length 122 m; draft 5.5 m.

Type: Ship. MMSI: 538004548.

Date/timePositionNaut miles runAvg speedWind from/ knotsBaromVisibWave heightAir tempDewpointWater temp
2015-May-22 20:19N 36°40' E 000°15'4012.9
2015-May-22 17:14N 36°32' W 000°33'8813.3
2015-May-22 10:33N 36°16' W 002°21'1413.2
2015-May-22 09:28N 36°14' W 002°39'1413.0
2015-May-22 08:23N 36°12' W 002°56'11113.8
2015-May-22 00:24N 36°00' W 005°12'1315.6
2015-May-21 23:33N 35°57' W 005°28'  
2015-May-18 02:31N 24°05' W 016°43'1511.5
2015-May-18 01:11N 23°51' W 016°49'811.6
2015-May-18 00:30N 23°43' W 016°52'1711.7
2015-May-17 23:05N 23°28' W 017°00'611.9
2015-May-17 22:34N 23°23' W 017°03'1311.9
2015-May-17 21:28N 23°11' W 017°08'3611.7
2015-May-17 18:24N 22°38' W 017°23'1011.3
2015-May-17 17:33N 22°29' W 017°28'1211.5
2015-May-17 16:32N 22°18' W 017°32'1111.3
2015-May-17 15:33N 22°08' W 017°37'1111.4
2015-May-17 14:33N 21°58' W 017°42'1211.6
2015-May-17 13:33N 21°47' W 017°47'1211.7
2015-May-17 12:34N 21°36' W 017°50'1211.5
2015-May-17 11:33N 21°24' W 017°50'1211.7
2015-May-17 10:34N 21°12' W 017°50'1311.9
2015-May-17 09:25N 20°59' W 017°50'1112.7
2015-May-17 08:33N 20°48' W 017°50'1312.9
2015-May-17 07:33N 20°35' W 017°50'1412.9
2015-May-17 06:29N 20°21' W 017°50'1213.0
2015-May-17 05:33N 20°09' W 017°50'3112.5
2015-May-17 03:03N 19°38' W 017°50'  

Dump ship's entire track history